sensor_id;sensor_type;location;lat;lon;timestamp;pressure;altitude;pressure_sealevel;temperature;humidity
54666;BME280;40566;50.006;36.180;2023-03-05T00:03:00;98153.94;;;0.91;65.31
54666;BME280;40566;50.006;36.180;2023-03-05T00:08:01;98145.56;;;0.84;65.51
54666;BME280;40566;50.006;36.180;2023-03-05T00:13:01;98145.66;;;0.76;65.87
54666;BME280;40566;50.006;36.180;2023-03-05T00:18:02;98156.91;;;0.62;66.23
54666;BME280;40566;50.006;36.180;2023-03-05T00:23:03;98147.66;;;0.56;66.32
54666;BME280;40566;50.006;36.180;2023-03-05T00:28:04;98156.91;;;0.60;66.32
54666;BME280;40566;50.006;36.180;2023-03-05T00:33:04;98158.59;;;0.61;66.38
54666;BME280;40566;50.006;36.180;2023-03-05T00:38:05;98159.41;;;0.63;66.50
54666;BME280;40566;50.006;36.180;2023-03-05T00:43:06;98152.53;;;0.71;66.11
54666;BME280;40566;50.006;36.180;2023-03-05T00:48:07;98166.16;;;0.67;66.23
54666;BME280;40566;50.006;36.180;2023-03-05T00:53:07;98151.59;;;0.77;65.86
54666;BME280;40566;50.006;36.180;2023-03-05T00:58:08;98152.53;;;0.71;66.08
54666;BME280;40566;50.006;36.180;2023-03-05T01:03:09;98162.72;;;0.71;66.06
54666;BME280;40566;50.006;36.180;2023-03-05T01:08:09;98157.66;;;0.67;66.44
54666;BME280;40566;50.006;36.180;2023-03-05T01:13:10;98158.53;;;0.67;66.42
54666;BME280;40566;50.006;36.180;2023-03-05T01:18:11;98154.19;;;0.72;66.36
54666;BME280;40566;50.006;36.180;2023-03-05T01:23:11;98154.97;;;0.79;66.29
54666;BME280;40566;50.006;36.180;2023-03-05T01:28:12;98161.72;;;0.82;66.24
54666;BME280;40566;50.006;36.180;2023-03-05T01:33:12;98151.38;;;0.91;66.17
54666;BME280;40566;50.006;36.180;2023-03-05T01:38:13;98150.56;;;0.89;66.21
54666;BME280;40566;50.006;36.180;2023-03-05T01:43:30;98159.03;;;0.91;66.21
54666;BME280;40566;50.006;36.180;2023-03-05T01:48:31;98160.59;;;1.01;66.01
54666;BME280;40566;50.006;36.180;2023-03-05T01:53:31;98178.38;;;1.03;66.17
54666;BME280;40566;50.006;36.180;2023-03-05T01:58:32;98175.88;;;1.01;66.08
54666;BME280;40566;50.006;36.180;2023-03-05T02:03:33;98176.63;;;1.05;65.84
54666;BME280;40566;50.006;36.180;2023-03-05T02:08:34;98181.69;;;1.09;65.92
54666;BME280;40566;50.006;36.180;2023-03-05T02:13:35;98190.97;;;1.10;65.68
54666;BME280;40566;50.006;36.180;2023-03-05T02:18:37;98192.88;;;0.99;65.71
54666;BME280;40566;50.006;36.180;2023-03-05T02:23:38;98205.81;;;0.81;66.01
54666;BME280;40566;50.006;36.180;2023-03-05T02:28:46;98197.38;;;0.78;65.57
54666;BME280;40566;50.006;36.180;2023-03-05T02:33:50;98202.44;;;0.80;65.66
54666;BME280;40566;50.006;36.180;2023-03-05T02:38:51;98214.38;;;0.76;65.49
54666;BME280;40566;50.006;36.180;2023-03-05T02:43:52;98220.25;;;0.82;65.21
54666;BME280;40566;50.006;36.180;2023-03-05T02:48:53;98220.28;;;0.78;65.10
54666;BME280;40566;50.006;36.180;2023-03-05T02:53:54;98224.53;;;0.78;64.87
54666;BME280;40566;50.006;36.180;2023-03-05T02:58:54;98245.75;;;0.77;64.77
54666;BME280;40566;50.006;36.180;2023-03-05T03:03:55;98247.50;;;0.73;64.47
54666;BME280;40566;50.006;36.180;2023-03-05T03:08:56;98257.88;;;0.55;64.32
54666;BME280;40566;50.006;36.180;2023-03-05T03:13:58;98268.22;;;0.41;64.10
54666;BME280;40566;50.006;36.180;2023-03-05T03:18:58;98281.06;;;0.27;64.00
54666;BME280;40566;50.006;36.180;2023-03-05T03:23:59;98279.53;;;0.12;63.83
54666;BME280;40566;50.006;36.180;2023-03-05T03:29:00;98276.19;;;0.09;63.61
54666;BME280;40566;50.006;36.180;2023-03-05T03:34:00;98284.72;;;0.03;63.24
54666;BME280;40566;50.006;36.180;2023-03-05T03:39:01;98293.22;;;-0.04;63.07
54666;BME280;40566;50.006;36.180;2023-03-05T03:44:03;98289.97;;;-0.15;63.05
54666;BME280;40566;50.006;36.180;2023-03-05T03:49:07;98299.34;;;-0.25;63.08
54666;BME280;40566;50.006;36.180;2023-03-05T03:54:07;98318.91;;;-0.35;62.99
54666;BME280;40566;50.006;36.180;2023-03-05T03:59:08;98327.44;;;-0.48;62.89
54666;BME280;40566;50.006;36.180;2023-03-05T04:04:11;98333.47;;;-0.63;63.00
54666;BME280;40566;50.006;36.180;2023-03-05T04:09:11;98330.97;;;-0.75;62.98
54666;BME280;40566;50.006;36.180;2023-03-05T04:14:12;98337.84;;;-0.87;62.95
54666;BME280;40566;50.006;36.180;2023-03-05T04:19:12;98351.41;;;-1.00;62.78
54666;BME280;40566;50.006;36.180;2023-03-05T04:24:13;98357.34;;;-1.07;62.82
54666;BME280;40566;50.006;36.180;2023-03-05T04:29:14;98362.44;;;-1.07;62.62
54666;BME280;40566;50.006;36.180;2023-03-05T04:34:14;98363.28;;;-1.11;62.66
54666;BME280;40566;50.006;36.180;2023-03-05T04:39:15;98365.00;;;-1.13;62.48
54666;BME280;40566;50.006;36.180;2023-03-05T04:44:16;98380.25;;;-1.16;62.45
54666;BME280;40566;50.006;36.180;2023-03-05T04:49:17;98387.84;;;-1.16;62.40
54666;BME280;40566;50.006;36.180;2023-03-05T04:54:17;98401.38;;;-1.19;62.27
54666;BME280;40566;50.006;36.180;2023-03-05T04:59:18;98394.59;;;-1.12;62.18
54666;BME280;40566;50.006;36.180;2023-03-05T05:04:18;98403.91;;;-1.19;62.16
54666;BME280;40566;50.006;36.180;2023-03-05T05:09:19;98404.75;;;-1.22;62.31
54666;BME280;40566;50.006;36.180;2023-03-05T05:14:20;98419.13;;;-1.17;62.19
54666;BME280;40566;50.006;36.180;2023-03-05T05:19:20;98421.66;;;-1.14;62.04
54666;BME280;40566;50.006;36.180;2023-03-05T05:24:21;98422.47;;;-1.11;62.00
54666;BME280;40566;50.006;36.180;2023-03-05T05:29:22;98440.25;;;-1.06;61.85
54666;BME280;40566;50.006;36.180;2023-03-05T05:34:22;98439.41;;;-1.01;61.70
54666;BME280;40566;50.006;36.180;2023-03-05T05:39:25;98454.59;;;-0.91;61.47
54666;BME280;40566;50.006;36.180;2023-03-05T05:44:25;98455.44;;;-0.88;61.40
54666;BME280;40566;50.006;36.180;2023-03-05T05:49:26;98470.63;;;-0.78;61.43
54666;BME280;40566;50.006;36.180;2023-03-05T05:54:27;98484.19;;;-0.76;61.22
54666;BME280;40566;50.006;36.180;2023-03-05T05:59:27;98487.56;;;-0.81;61.18
54666;BME280;40566;50.006;36.180;2023-03-05T06:04:28;98494.31;;;-0.81;60.98
54666;BME280;40566;50.006;36.180;2023-03-05T06:09:28;98489.25;;;-0.75;61.00
54666;BME280;40566;50.006;36.180;2023-03-05T06:14:29;98506.06;;;-0.46;60.52
54666;BME280;40566;50.006;36.180;2023-03-05T06:19:30;98510.28;;;-0.39;60.37
54666;BME280;40566;50.006;36.180;2023-03-05T06:24:30;98524.59;;;-0.12;59.84
54666;BME280;40566;50.006;36.180;2023-03-05T06:29:31;98534.66;;;0.04;59.39
54666;BME280;40566;50.006;36.180;2023-03-05T06:34:32;98530.38;;;0.13;59.37
54666;BME280;40566;50.006;36.180;2023-03-05T06:39:32;98539.47;;;0.50;58.56
54666;BME280;40566;50.006;36.180;2023-03-05T06:44:33;98541.19;;;0.45;58.84
54666;BME280;40566;50.006;36.180;2023-03-05T06:49:33;98550.53;;;0.44;58.69
54666;BME280;40566;50.006;36.180;2023-03-05T06:54:34;98558.81;;;0.72;58.27
54666;BME280;40566;50.006;36.180;2023-03-05T06:59:34;98565.63;;;0.72;58.26
54666;BME280;40566;50.006;36.180;2023-03-05T07:04:35;98565.41;;;1.01;57.85
54666;BME280;40566;50.006;36.180;2023-03-05T07:09:36;98572.25;;;0.93;57.85
54666;BME280;40566;50.006;36.180;2023-03-05T07:14:42;98577.94;;;1.21;57.70
54666;BME280;40566;50.006;36.180;2023-03-05T07:19:42;98583.16;;;1.09;57.74
54666;BME280;40566;50.006;36.180;2023-03-05T07:24:43;98581.38;;;1.17;57.57
54666;BME280;40566;50.006;36.180;2023-03-05T07:29:44;98585.66;;;1.12;57.71
54666;BME280;40566;50.006;36.180;2023-03-05T07:34:44;98595.19;;;0.90;58.07
54666;BME280;40566;50.006;36.180;2023-03-05T07:39:45;98584.13;;;0.94;57.89
54666;BME280;40566;50.006;36.180;2023-03-05T07:44:46;98602.53;;;1.22;57.57
54666;BME280;40566;50.006;36.180;2023-03-05T07:49:46;98605.72;;;1.49;57.08
54666;BME280;40566;50.006;36.180;2023-03-05T07:54:47;98604.31;;;2.01;55.92
54666;BME280;40566;50.006;36.180;2023-03-05T07:59:47;98603.47;;;1.98;56.05
54666;BME280;40566;50.006;36.180;2023-03-05T08:04:48;98600.19;;;1.87;55.96
54666;BME280;40566;50.006;36.180;2023-03-05T08:09:49;98607.06;;;1.82;56.22
54666;BME280;40566;50.006;36.180;2023-03-05T08:14:49;98604.22;;;2.10;55.81
54666;BME280;40566;50.006;36.180;2023-03-05T08:19:50;98603.84;;;2.37;55.35
54666;BME280;40566;50.006;36.180;2023-03-05T08:24:51;98610.22;;;2.71;54.89
54666;BME280;40566;50.006;36.180;2023-03-05T08:29:52;98626.19;;;2.20;55.73
54666;BME280;40566;50.006;36.180;2023-03-05T08:34:55;98618.13;;;1.81;56.13
54666;BME280;40566;50.006;36.180;2023-03-05T08:39:57;98623.78;;;2.06;55.29
54666;BME280;40566;50.006;36.180;2023-03-05T08:44:58;98627.16;;;2.08;55.37
54666;BME280;40566;50.006;36.180;2023-03-05T08:49:58;98630.88;;;1.81;55.71
54666;BME280;40566;50.006;36.180;2023-03-05T08:54:59;98635.06;;;1.85;55.50
54666;BME280;40566;50.006;36.180;2023-03-05T09:00:00;98654.56;;;1.91;55.39
54666;BME280;40566;50.006;36.180;2023-03-05T09:05:00;98650.63;;;2.40;54.20
54666;BME280;40566;50.006;36.180;2023-03-05T09:10:01;98635.22;;;2.44;53.67
54666;BME280;40566;50.006;36.180;2023-03-05T09:15:03;98634.38;;;2.45;54.08
54666;BME280;40566;50.006;36.180;2023-03-05T09:20:05;98636.38;;;6.12;45.52
54666;BME280;40566;50.006;36.180;2023-03-05T09:25:07;98641.53;;;3.86;50.84
54666;BME280;40566;50.006;36.180;2023-03-05T09:30:08;98639.97;;;3.28;52.69
54666;BME280;40566;50.006;36.180;2023-03-05T09:35:09;98649.84;;;2.96;53.70
54666;BME280;40566;50.006;36.180;2023-03-05T09:40:15;98644.72;;;2.96;53.49
54666;BME280;40566;50.006;36.180;2023-03-05T09:51:12;98653.09;;;2.43;54.12
54666;BME280;40566;50.006;36.180;2023-03-05T09:56:21;98649.44;;;2.65;53.76
54666;BME280;40566;50.006;36.180;2023-03-05T10:11:56;98681.97;;;2.51;53.58
54666;BME280;40566;50.006;36.180;2023-03-05T10:27:56;98676.78;;;2.57;53.55
54666;BME280;40566;50.006;36.180;2023-03-05T10:49:41;98669.22;;;2.49;53.46
54666;BME280;40566;50.006;36.180;2023-03-05T10:54:28;98680.16;;;2.59;53.36
54666;BME280;40566;50.006;36.180;2023-03-05T10:59:29;98677.72;;;2.48;53.53
54666;BME280;40566;50.006;36.180;2023-03-05T11:04:37;98685.53;;;2.33;53.53
54666;BME280;40566;50.006;36.180;2023-03-05T11:09:38;98685.75;;;2.14;54.03
54666;BME280;40566;50.006;36.180;2023-03-05T11:14:44;98689.41;;;1.92;54.09
54666;BME280;40566;50.006;36.180;2023-03-05T11:19:46;98697.00;;;1.98;54.11
54666;BME280;40566;50.006;36.180;2023-03-05T11:30:28;98695.50;;;1.78;54.28
54666;BME280;40566;50.006;36.180;2023-03-05T11:35:33;98707.22;;;1.95;53.86
54666;BME280;40566;50.006;36.180;2023-03-05T11:40:34;98714.13;;;1.84;54.09
54666;BME280;40566;50.006;36.180;2023-03-05T11:45:37;98711.59;;;1.82;54.13
54666;BME280;40566;50.006;36.180;2023-03-05T11:50:40;98713.34;;;1.78;54.26
54666;BME280;40566;50.006;36.180;2023-03-05T11:55:45;98718.47;;;1.74;54.21
54666;BME280;40566;50.006;36.180;2023-03-05T12:00:48;98720.16;;;1.78;54.04
54666;BME280;40566;50.006;36.180;2023-03-05T12:05:53;98720.09;;;1.81;53.94
54666;BME280;40566;50.006;36.180;2023-03-05T12:10:58;98729.50;;;1.76;54.16
54666;BME280;40566;50.006;36.180;2023-03-05T12:16:13;98736.22;;;1.86;53.69
54666;BME280;40566;50.006;36.180;2023-03-05T12:21:38;98726.69;;;2.04;53.52
54666;BME280;40566;50.006;36.180;2023-03-05T12:31:52;98740.22;;;2.12;53.58
54666;BME280;40566;50.006;36.180;2023-03-05T12:36:53;98731.88;;;1.97;53.58
54666;BME280;40566;50.006;36.180;2023-03-05T12:41:53;98737.16;;;1.76;53.95
54666;BME280;40566;50.006;36.180;2023-03-05T12:47:25;98747.47;;;1.62;54.03
54666;BME280;40566;50.006;36.180;2023-03-05T12:52:27;98742.38;;;1.61;54.40
54666;BME280;40566;50.006;36.180;2023-03-05T12:57:29;98745.75;;;1.59;54.39
54666;BME280;40566;50.006;36.180;2023-03-05T13:02:34;98749.16;;;1.62;54.24
54666;BME280;40566;50.006;36.180;2023-03-05T13:07:35;98741.44;;;1.71;54.38
54666;BME280;40566;50.006;36.180;2023-03-05T13:12:37;98750.63;;;1.87;53.88
54666;BME280;40566;50.006;36.180;2023-03-05T13:17:41;98759.38;;;1.58;54.20
54666;BME280;40566;50.006;36.180;2023-03-05T13:23:16;98746.69;;;1.51;54.23
54666;BME280;40566;50.006;36.180;2023-03-05T13:28:19;98762.75;;;1.62;54.14
54666;BME280;40566;50.006;36.180;2023-03-05T13:33:25;98750.97;;;1.47;54.49
54666;BME280;40566;50.006;36.180;2023-03-05T13:38:39;98751.91;;;1.35;54.55
54666;BME280;40566;50.006;36.180;2023-03-05T13:43:54;98752.72;;;1.36;54.46
54666;BME280;40566;50.006;36.180;2023-03-05T13:48:55;98740.78;;;1.47;54.27
54666;BME280;40566;50.006;36.180;2023-03-05T13:53:56;98746.69;;;1.51;54.16
54666;BME280;40566;50.006;36.180;2023-03-05T13:58:57;98757.78;;;1.45;53.95
54666;BME280;40566;50.006;36.180;2023-03-05T14:04:26;98748.50;;;1.32;53.65
54666;BME280;40566;50.006;36.180;2023-03-05T14:14:30;98755.38;;;1.22;53.84
54666;BME280;40566;50.006;36.180;2023-03-05T14:19:36;98764.72;;;1.22;53.86
54666;BME280;40566;50.006;36.180;2023-03-05T14:24:37;98762.91;;;1.36;53.63
54666;BME280;40566;50.006;36.180;2023-03-05T14:29:43;98756.19;;;1.29;53.98
54666;BME280;40566;50.006;36.180;2023-03-05T14:34:56;98756.22;;;1.23;53.86
54666;BME280;40566;50.006;36.180;2023-03-05T14:40:19;98767.22;;;1.26;54.00
54666;BME280;40566;50.006;36.180;2023-03-05T14:45:23;98762.13;;;1.26;53.89
54666;BME280;40566;50.006;36.180;2023-03-05T14:50:28;98764.75;;;1.18;53.99
54666;BME280;40566;50.006;36.180;2023-03-05T14:55:33;98761.38;;;1.13;54.28
54666;BME280;40566;50.006;36.180;2023-03-05T15:00:34;98771.59;;;1.07;54.35
54666;BME280;40566;50.006;36.180;2023-03-05T15:05:36;98773.28;;;1.11;54.06
54666;BME280;40566;50.006;36.180;2023-03-05T15:10:37;98777.53;;;1.08;54.29
54666;BME280;40566;50.006;36.180;2023-03-05T15:15:38;98781.81;;;1.01;54.22
54666;BME280;40566;50.006;36.180;2023-03-05T15:20:41;98786.13;;;0.81;54.75
54666;BME280;40566;50.006;36.180;2023-03-05T15:25:42;98786.09;;;0.88;54.58
54666;BME280;40566;50.006;36.180;2023-03-05T15:30:45;98803.09;;;0.86;54.55
54666;BME280;40566;50.006;36.180;2023-03-05T15:35:46;98804.75;;;0.90;54.39
54666;BME280;40566;50.006;36.180;2023-03-05T15:40:48;98806.44;;;0.94;54.44
54666;BME280;40566;50.006;36.180;2023-03-05T15:45:49;98814.09;;;0.90;54.51
54666;BME280;40566;50.006;36.180;2023-03-05T15:50:49;98823.44;;;0.97;54.55
54666;BME280;40566;50.006;36.180;2023-03-05T15:55:50;98824.25;;;0.99;54.36
54666;BME280;40566;50.006;36.180;2023-03-05T16:00:51;98837.03;;;0.91;54.86
54666;BME280;40566;50.006;36.180;2023-03-05T16:05:51;98842.94;;;0.89;54.73
54666;BME280;40566;50.006;36.180;2023-03-05T16:10:52;98844.66;;;0.90;54.62
54666;BME280;40566;50.006;36.180;2023-03-05T16:15:53;98851.44;;;0.85;54.74
54666;BME280;40566;50.006;36.180;2023-03-05T16:20:54;98853.97;;;0.91;54.74
54666;BME280;40566;50.006;36.180;2023-03-05T16:25:55;98857.41;;;0.85;54.83
54666;BME280;40566;50.006;36.180;2023-03-05T16:30:56;98856.53;;;0.88;54.76
54666;BME280;40566;50.006;36.180;2023-03-05T16:36:17;98846.34;;;0.91;54.75
54666;BME280;40566;50.006;36.180;2023-03-05T16:41:20;98848.03;;;0.98;54.75
54666;BME280;40566;50.006;36.180;2023-03-05T16:46:25;98841.28;;;0.86;54.80
54666;BME280;40566;50.006;36.180;2023-03-05T16:51:26;98842.16;;;0.77;55.27
54666;BME280;40566;50.006;36.180;2023-03-05T16:56:28;98843.84;;;0.72;55.28
54666;BME280;40566;50.006;36.180;2023-03-05T17:01:29;98831.97;;;0.73;55.01
54666;BME280;40566;50.006;36.180;2023-03-05T17:06:30;98829.47;;;0.64;55.14
54666;BME280;40566;50.006;36.180;2023-03-05T17:11:31;98832.91;;;0.41;55.74
54666;BME280;40566;50.006;36.180;2023-03-05T17:16:32;98833.75;;;0.31;56.02
54666;BME280;40566;50.006;36.180;2023-03-05T17:21:33;98821.06;;;0.20;55.96
54666;BME280;40566;50.006;36.180;2023-03-05T17:26:33;98833.78;;;0.18;56.14
54666;BME280;40566;50.006;36.180;2023-03-05T17:31:37;98821.91;;;0.11;56.17
54666;BME280;40566;50.006;36.180;2023-03-05T17:36:38;98829.53;;;0.10;56.32
54666;BME280;40566;50.006;36.180;2023-03-05T17:41:38;98826.16;;;0.11;56.34
54666;BME280;40566;50.006;36.180;2023-03-05T17:46:39;98828.69;;;0.09;56.47
54666;BME280;40566;50.006;36.180;2023-03-05T17:51:41;98838.03;;;0.15;56.25
54666;BME280;40566;50.006;36.180;2023-03-05T17:56:41;98832.06;;;0.17;56.29
54666;BME280;40566;50.006;36.180;2023-03-05T18:01:42;98843.09;;;0.21;56.29
54666;BME280;40566;50.006;36.180;2023-03-05T18:06:42;98846.47;;;0.32;56.24
54666;BME280;40566;50.006;36.180;2023-03-05T18:11:43;98844.78;;;0.28;56.31
54666;BME280;40566;50.006;36.180;2023-03-05T18:16:44;98854.94;;;0.24;56.45
54666;BME280;40566;50.006;36.180;2023-03-05T18:21:44;98846.47;;;0.29;56.38
54666;BME280;40566;50.006;36.180;2023-03-05T18:26:45;98861.75;;;0.32;56.50
54666;BME280;40566;50.006;36.180;2023-03-05T18:31:46;98854.13;;;0.40;56.27
54666;BME280;40566;50.006;36.180;2023-03-05T18:36:46;98860.03;;;0.41;56.37
54666;BME280;40566;50.006;36.180;2023-03-05T18:41:47;98859.19;;;0.38;56.51
54666;BME280;40566;50.006;36.180;2023-03-05T18:46:48;98863.44;;;0.33;56.60
54666;BME280;40566;50.006;36.180;2023-03-05T18:51:49;98855.81;;;0.36;56.48
54666;BME280;40566;50.006;36.180;2023-03-05T18:56:49;98862.59;;;0.41;56.60
54666;BME280;40566;50.006;36.180;2023-03-05T19:01:50;98853.25;;;0.36;56.60
54666;BME280;40566;50.006;36.180;2023-03-05T19:06:50;98854.97;;;0.28;56.52
54666;BME280;40566;50.006;36.180;2023-03-05T19:11:51;98867.69;;;0.21;56.80
54666;BME280;40566;50.006;36.180;2023-03-05T19:16:51;98857.50;;;0.28;56.56
54666;BME280;40566;50.006;36.180;2023-03-05T19:21:54;98857.50;;;0.25;56.60
54666;BME280;40566;50.006;36.180;2023-03-05T19:26:57;98854.97;;;0.34;56.44
54666;BME280;40566;50.006;36.180;2023-03-05T19:32:00;98858.34;;;0.36;56.28
54666;BME280;40566;50.006;36.180;2023-03-05T19:37:02;98860.03;;;0.42;56.21
54666;BME280;40566;50.006;36.180;2023-03-05T19:42:03;98866.81;;;0.38;56.14
54666;BME280;40566;50.006;36.180;2023-03-05T19:47:04;98870.25;;;0.22;56.57
54666;BME280;40566;50.006;36.180;2023-03-05T19:52:05;98869.38;;;0.20;56.60
54666;BME280;40566;50.006;36.180;2023-03-05T19:57:05;98871.06;;;0.30;56.35
54666;BME280;40566;50.006;36.180;2023-03-05T20:02:08;98860.88;;;0.19;56.53
54666;BME280;40566;50.006;36.180;2023-03-05T20:07:08;98860.91;;;0.15;56.32
54666;BME280;40566;50.006;36.180;2023-03-05T20:12:10;98860.91;;;0.15;56.57
54666;BME280;40566;50.006;36.180;2023-03-05T20:17:10;98857.53;;;0.22;56.37
54666;BME280;40566;50.006;36.180;2023-03-05T20:22:11;98854.13;;;0.25;56.46
54666;BME280;40566;50.006;36.180;2023-03-05T20:27:11;98856.63;;;0.35;56.04
54666;BME280;40566;50.006;36.180;2023-03-05T20:32:12;98855.81;;;0.26;56.38
54666;BME280;40566;50.006;36.180;2023-03-05T20:37:14;98854.13;;;0.25;56.47
54666;BME280;40566;50.006;36.180;2023-03-05T20:42:14;98843.97;;;0.14;56.66
54666;BME280;40566;50.006;36.180;2023-03-05T20:47:23;98843.09;;;0.21;56.54
54666;BME280;40566;50.006;36.180;2023-03-05T20:52:44;98836.31;;;0.17;56.49
54666;BME280;40566;50.006;36.180;2023-03-05T20:57:44;98848.19;;;0.24;56.47
54666;BME280;40566;50.006;36.180;2023-03-05T21:02:45;98843.09;;;0.30;56.34
54666;BME280;40566;50.006;36.180;2023-03-05T21:07:50;98837.16;;;0.28;56.31
54666;BME280;40566;50.006;36.180;2023-03-05T21:12:51;98825.28;;;0.30;56.40
54666;BME280;40566;50.006;36.180;2023-03-05T21:17:52;98831.19;;;0.43;56.09
54666;BME280;40566;50.006;36.180;2023-03-05T21:22:54;98827.84;;;0.38;56.27
54666;BME280;40566;50.006;36.180;2023-03-05T21:27:56;98832.91;;;0.36;56.42
54666;BME280;40566;50.006;36.180;2023-03-05T21:33:04;98818.50;;;0.40;56.27
54666;BME280;40566;50.006;36.180;2023-03-05T21:38:06;98815.09;;;0.41;56.20
54666;BME280;40566;50.006;36.180;2023-03-05T21:43:06;98816.78;;;0.39;56.44
54666;BME280;40566;50.006;36.180;2023-03-05T21:48:07;98821.06;;;0.28;56.54
54666;BME280;40566;50.006;36.180;2023-03-05T21:53:09;98815.13;;;0.19;56.75
54666;BME280;40566;50.006;36.180;2023-03-05T21:58:09;98810.91;;;0.06;56.92
54666;BME280;40566;50.006;36.180;2023-03-05T22:03:10;98814.31;;;0.01;57.01
54666;BME280;40566;50.006;36.180;2023-03-05T22:08:11;98803.28;;;-0.06;56.95
54666;BME280;40566;50.006;36.180;2023-03-05T22:13:11;98804.97;;;-0.19;57.05
54666;BME280;40566;50.006;36.180;2023-03-05T22:18:14;98806.69;;;-0.26;57.14
54666;BME280;40566;50.006;36.180;2023-03-05T22:23:15;98805.84;;;-0.35;57.33
54666;BME280;40566;50.006;36.180;2023-03-05T22:28:16;98818.50;;;-0.42;57.33
54666;BME280;40566;50.006;36.180;2023-03-05T22:33:19;98803.28;;;-0.51;57.53
54666;BME280;40566;50.006;36.180;2023-03-05T22:38:19;98807.47;;;-0.56;57.33
54666;BME280;40566;50.006;36.180;2023-03-05T22:43:20;98801.56;;;-0.63;57.79
54666;BME280;40566;50.006;36.180;2023-03-05T22:48:21;98804.06;;;-0.70;57.83
54666;BME280;40566;50.006;36.180;2023-03-05T22:53:21;98807.44;;;-0.76;57.81
54666;BME280;40566;50.006;36.180;2023-03-05T22:58:22;98802.34;;;-0.84;57.94
54666;BME280;40566;50.006;36.180;2023-03-05T23:03:22;98810.81;;;-0.85;58.04
54666;BME280;40566;50.006;36.180;2023-03-05T23:08:23;98804.84;;;-0.93;58.22
54666;BME280;40566;50.006;36.180;2023-03-05T23:13:24;98807.38;;;-0.96;58.16
54666;BME280;40566;50.006;36.180;2023-03-05T23:18:24;98816.69;;;-0.93;58.09
54666;BME280;40566;50.006;36.180;2023-03-05T23:23:25;98802.28;;;-1.05;58.20
54666;BME280;40566;50.006;36.180;2023-03-05T23:28:26;98792.09;;;-1.11;58.49
54666;BME280;40566;50.006;36.180;2023-03-05T23:33:27;98798.88;;;-1.12;58.32
54666;BME280;40566;50.006;36.180;2023-03-05T23:38:28;98792.91;;;-1.22;58.52
54666;BME280;40566;50.006;36.180;2023-03-05T23:43:29;98789.50;;;-1.28;58.70
54666;BME280;40566;50.006;36.180;2023-03-05T23:48:30;98786.97;;;-1.30;58.83
54666;BME280;40566;50.006;36.180;2023-03-05T23:53:30;98775.97;;;-1.30;58.64
54666;BME280;40566;50.006;36.180;2023-03-05T23:58:34;98765.00;;;-1.28;58.59
